• Join FlightAware (Why Join?)
  • Login
  • US Flag 
09:07AM EDT


 

Airport Tracker/Info


-or-


 

Live Flight TrackerFlight Track Log ✈ CAL260 ✈ 16-Feb-2014 ✈ RCSS / TSA - RKSS / GMP

Flight Track Log - Related Links

Times and Time Zones

All times are in EST time to prevent confusion due to time zone crossing. See the CAL260 flight status page for this flight to view local times or setup timezone preferences in your user account.

Time Position Orientation Groundspeed Altitude Reporting Facility
EST Latitude Longitude Course Direction KTS MPH feet Rate Location/Type
08:28PM 25.3597 121.6585 18° North  Level Estimated
08:29PM 25.4565 121.6942 18° North  Level Estimated
08:30PM 25.5532 121.7300 18° North  Level Estimated
08:31PM 25.6499 121.7659 18° North  Level Estimated
08:32PM 25.7466 121.8018 18° North  Level Estimated
08:33PM 25.8433 121.8377 19° North  Level Estimated
08:34PM 25.9400 121.8737 19° North  Level Estimated
08:35PM 26.0367 121.9098 19° North  Level Estimated
08:36PM 26.1334 121.9460 19° North  Level Estimated
08:37PM 26.2301 121.9822 19° North  Level Estimated
08:38PM 26.3267 122.0184 19° North  Level Estimated
08:39PM 26.4234 122.0547 19° North  Level Estimated
08:40PM 26.5200 122.0911 19° North  Level Estimated
08:41PM 26.6167 122.1276 19° North  Level Estimated
08:42PM 26.7133 122.1641 19° North  Level Estimated
08:43PM 26.8099 122.2006 19° North  Level Estimated
08:44PM 26.9065 122.2373 19° North  Level Estimated
08:45PM 27.0031 122.2739 19° North  Level Estimated
08:46PM 27.0997 122.3107 19° North  Level Estimated
08:47PM 27.1963 122.3475 19° North  Level Estimated
08:48PM 27.2929 122.3844 19° North  Level Estimated
08:49PM 27.3894 122.4213 19° North  Level Estimated
08:50PM 27.4860 122.4584 19° North  Level Estimated
08:51PM 27.5825 122.4954 19° North  Level Estimated
08:52PM 27.6790 122.5326 19° North  Level Estimated
08:53PM 27.7756 122.5698 19° North  Level Estimated
08:54PM 27.8721 122.6070 19° North  Level Estimated
08:55PM 27.9686 122.6444 19° North  Level Estimated
08:56PM 28.0651 122.6818 19° North  Level Estimated
08:57PM 28.1615 122.7192 19° North  Level Estimated
08:58PM 28.2580 122.7568 19° North  Level Estimated
08:59PM 28.3545 122.7944 19° North  Level Estimated
09:00PM 28.4509 122.8321 19° North  Level Estimated
09:01PM 28.5473 122.8698 19° North  Level Estimated
09:02PM 28.6438 122.9076 19° North  Level Estimated
09:03PM 28.7402 122.9455 19° North  Level Estimated
09:04PM 28.8366 122.9835 19° North  Level Estimated
09:05PM 28.9330 123.0215 19° North  Level Estimated
09:06PM 29.0294 123.0596 19° North  Level Estimated
09:07PM 29.1257 123.0977 19° North  Level Estimated
09:08PM 29.2221 123.1360 19° North  Level Estimated
09:09PM 29.3185 123.1743 19° North  Level Estimated
09:10PM 29.4148 123.2127 19° North  Level Estimated
09:11PM 29.5111 123.2511 19° North  Level Estimated
09:12PM 29.6075 123.2896 19° North  Level Estimated
09:13PM 29.7038 123.3282 19° North  Level Estimated
09:14PM 29.8001 123.3669 19° North  Level Estimated
09:15PM 29.8963 123.4057 19° North  Level Estimated
09:16PM 29.9926 123.4445 19° North  Level Estimated
09:17PM 30.0889 123.4834 19° North  Level Estimated
09:18PM 30.1851 123.5224 19° North  Level Estimated
09:19PM 30.2814 123.5614 19° North  Level Estimated
09:20PM 30.3776 123.6005 19° North  Level Estimated
09:21PM 30.4738 123.6398 19° North  Level Estimated
09:22PM 30.5700 123.6790 19° North  Level Estimated
09:23PM 30.6662 123.7184 19° North  Level Estimated
09:24PM 30.7624 123.7578 19° North  Level Estimated
09:25PM 30.8585 123.7974 19° North  Level Estimated
09:26PM 30.9547 123.8370 19° North  Level Estimated
09:27PM 31.0508 123.8766 19° North  Level Estimated
09:28PM 31.1470 123.9164 19° North  Level Estimated
09:29PM 31.2431 123.9562 20° North  Level Estimated
09:30PM 31.3392 123.9962 20° North  Level Estimated
09:31PM 31.4353 124.0362 20° North  Level Estimated
09:32PM 31.5314 124.0762 20° North  Level Estimated
09:33PM 31.6275 124.1164 20° North  Level Estimated
09:34PM 31.7235 124.1567 20° North  Level Estimated
09:35PM 31.8196 124.1970 20° North  Level Estimated
09:36PM 31.9156 124.2374 20° North  Level Estimated
09:37PM 32.0116 124.2779 20° North  Level Estimated
09:38PM 32.1076 124.3185 20° North  Level Estimated
09:39PM 32.2036 124.3592 20° North  Level Estimated
09:40PM 32.2996 124.3999 20° North  Level Estimated
09:41PM 32.3956 124.4408 20° North  Level Estimated
09:42PM 32.4915 124.4817 20° North  Level Estimated
09:43PM 32.5874 124.5227 20° North  Level Estimated
09:44PM 32.6834 124.5638 20° North  Level Estimated
09:45PM 32.7793 124.6050 20° North  Level Estimated
09:46PM 32.8752 124.6463 20° North  Level Estimated
09:47PM 32.9711 124.6877 20° North  Level Estimated
09:48PM 33.0670 124.7291 20° North  Level Estimated
09:49PM 33.1628 124.7707 20° North  Level Estimated
09:50PM 33.2587 124.8123 20° North  Level Estimated
09:51PM 33.3545 124.8541 20° North  Level Estimated
09:52PM 33.4503 124.8959 20° North  Level Estimated
09:53PM 33.5461 124.9378 20° North  Level Estimated
09:54PM 33.6419 124.9798 20° North  Level Estimated
09:55PM 33.7377 125.0219 20° North  Level Estimated
09:56PM 33.8334 125.0641 20° North  Level Estimated
09:57PM 33.9292 125.1064 20° North  Level Estimated
09:58PM 34.0249 125.1488 20° North  Level Estimated
09:59PM 34.1206 125.1913 20° North  Level Estimated
10:00PM 34.2163 125.2339 20° North  Level Estimated
10:01PM 34.3120 125.2766 20° North  Level Estimated
10:02PM 34.4077 125.3194 20° North  Level Estimated
10:03PM 34.5034 125.3622 20° North  Level Estimated
10:04PM 34.5990 125.4052 20° North  Level Estimated
10:05PM 34.6946 125.4483 20° North  Level Estimated
10:06PM 34.7902 125.4914 20° North  Level Estimated
10:07PM 34.8858 125.5347 20° North  Level Estimated
10:08PM 34.9814 125.5781 20° North  Level Estimated
10:09PM 35.0770 125.6215 20° North  Level Estimated
10:10PM 35.1725 125.6651 20° North  Level Estimated
10:11PM 35.2681 125.7088 20° North  Level Estimated
10:12PM 35.3636 125.7526 20° North  Level Estimated
10:13PM 35.4591 125.7965 21° North  Level Estimated
10:14PM 35.5546 125.8405 21° North  Level Estimated
10:15PM 35.6501 125.8846 21° North  Level Estimated
10:16PM 35.7455 125.9288 21° North  Level Estimated
10:17PM 35.8410 125.9731 21° North  Level Estimated
10:18PM 35.9364 126.0175 21° North  Level Estimated
10:19PM 36.0318 126.0620 21° North  Level Estimated
10:20PM 36.1272 126.1066 21° North  Level Estimated
10:21PM 36.2225 126.1514 21° North  Level Estimated
10:22PM 36.3179 126.1962 21° North  Level Estimated
10:23PM 36.4132 126.2412 21° North  Level Estimated
10:24PM 36.5086 126.2862 21° North  Level Estimated
10:25PM 36.6039 126.3314 21° North  Level Estimated
10:26PM 36.6992 126.3767 21° North  Level Estimated
10:27PM 36.7944 126.4221 21° North  Level Estimated
10:28PM 36.8897 126.4676 21° North  Level Estimated
10:29PM 36.9849 126.5133 21° North  Level Estimated
10:30PM 37.0802 126.5590 21° North  Level Estimated
10:31PM 37.1754 126.6049 21° North  Level Estimated
10:32PM 37.2705 126.6508 21° North  Level Estimated
10:33PM 37.3657 126.6969 21° North  Level Estimated